createdAt,value
2023-03-23T00:00:15.021Z,12.05
2023-03-23T00:02:49.819Z,12.01
2023-03-23T00:05:37.091Z,11.98
2023-03-23T00:08:17.153Z,11.94
2023-03-23T00:11:14.844Z,11.92
2023-03-23T00:13:57.282Z,11.83
2023-03-23T00:16:43.013Z,11.78
2023-03-23T00:19:27.757Z,11.72
2023-03-23T00:22:06.358Z,11.67
2023-03-23T00:24:44.722Z,11.69
2023-03-23T00:27:28.798Z,11.65
2023-03-23T00:30:20.351Z,11.72
2023-03-23T00:33:01.922Z,11.70
2023-03-23T00:35:50.825Z,11.69
2023-03-23T00:38:29.530Z,11.70
2023-03-23T00:41:09.746Z,11.38
2023-03-23T00:43:59.300Z,11.43
2023-03-23T00:46:49.342Z,11.53
2023-03-23T00:49:33.557Z,11.50
2023-03-23T00:52:24.768Z,11.45
2023-03-23T00:55:08.610Z,11.41
2023-03-23T00:57:49.379Z,11.18
2023-03-23T01:00:31.836Z,11.32
2023-03-23T01:03:33.173Z,11.31
2023-03-23T01:06:16.189Z,11.30
2023-03-23T01:08:56.484Z,11.23
2023-03-23T01:11:42.961Z,11.29
2023-03-23T01:14:27.391Z,11.24
2023-03-23T01:17:02.708Z,11.20
2023-03-23T01:19:43.156Z,11.16
2023-03-23T01:22:17.983Z,11.09
2023-03-23T01:24:59.321Z,10.95
2023-03-23T01:28:01.217Z,10.87
2023-03-23T01:30:43.362Z,11.08
2023-03-23T01:33:19.742Z,11.08
2023-03-23T01:36:16.474Z,11.04
2023-03-23T01:39:10.752Z,10.99
2023-03-23T01:41:44.846Z,10.91
2023-03-23T01:44:53.924Z,10.97
2023-03-23T01:47:34.976Z,10.91
2023-03-23T01:50:22.784Z,10.86
2023-03-23T01:53:25.162Z,10.86
2023-03-23T01:56:16.519Z,10.84
2023-03-23T01:58:58.702Z,10.83
2023-03-23T02:01:37.911Z,10.78
2023-03-23T02:04:25.989Z,10.87
2023-03-23T02:07:12.098Z,10.69
2023-03-23T02:09:53.959Z,10.75
2023-03-23T02:12:40.290Z,10.73
2023-03-23T02:15:20.451Z,10.78
2023-03-23T02:18:06.669Z,10.81
2023-03-23T02:21:21.482Z,10.85
2023-03-23T02:24:49.790Z,10.86
2023-03-23T02:28:05.469Z,10.90
2023-03-23T02:31:19.416Z,10.93
2023-03-23T02:34:14.138Z,10.91
2023-03-23T02:37:05.266Z,10.87
2023-03-23T02:39:46.041Z,10.84
2023-03-23T02:42:28.448Z,10.64
2023-03-23T02:45:18.075Z,10.76
2023-03-23T02:47:58.932Z,10.80
2023-03-23T02:50:39.136Z,10.79
2023-03-23T02:53:23.498Z,10.73
2023-03-23T02:56:12.996Z,10.56
2023-03-23T02:58:50.941Z,10.68
2023-03-23T03:02:08.670Z,10.67
2023-03-23T03:04:53.916Z,10.51
2023-03-23T03:07:57.258Z,10.49
2023-03-23T03:10:52.621Z,10.47
2023-03-23T03:13:49.130Z,10.37
2023-03-23T03:16:35.653Z,10.39
2023-03-23T03:19:24.546Z,10.39
2023-03-23T03:22:04.180Z,10.40
2023-03-23T03:24:56.189Z,10.40
2023-03-23T03:27:35.958Z,10.37
2023-03-23T03:30:29.002Z,10.35
2023-03-23T03:33:08.917Z,10.33
2023-03-23T03:36:04.287Z,10.30
2023-03-23T03:38:53.031Z,10.27
2023-03-23T03:41:28.773Z,10.29
2023-03-23T03:44:04.550Z,10.28
2023-03-23T03:46:47.886Z,10.26
2023-03-23T03:49:32.080Z,10.25
2023-03-23T03:52:07.999Z,10.14
2023-03-23T03:54:52.399Z,10.26
2023-03-23T03:57:38.711Z,10.10
2023-03-23T04:00:27.337Z,10.27
2023-03-23T04:03:05.520Z,10.26
2023-03-23T04:06:05.040Z,10.12
2023-03-23T04:09:07.717Z,10.06
2023-03-23T04:12:01.735Z,9.82
2023-03-23T04:15:18.752Z,9.93
2023-03-23T04:17:59.534Z,9.92
2023-03-23T04:20:40.163Z,9.86
2023-03-23T04:23:23.497Z,9.83
2023-03-23T04:26:10.841Z,9.77
2023-03-23T04:28:58.433Z,9.66
2023-03-23T04:31:49.059Z,9.65
2023-03-23T04:34:41.152Z,9.60
2023-03-23T04:37:20.932Z,9.48
2023-03-23T04:40:08.868Z,9.63
2023-03-23T04:42:48.523Z,9.60
2023-03-23T04:46:02.644Z,9.59
2023-03-23T04:48:39.704Z,9.61
2023-03-23T04:51:26.311Z,9.57
2023-03-23T04:54:19.036Z,9.57
2023-03-23T04:57:02.497Z,9.54
2023-03-23T04:59:50.392Z,9.51
2023-03-23T05:02:39.496Z,9.50
2023-03-23T05:05:24.215Z,9.49
2023-03-23T05:08:14.754Z,9.36
2023-03-23T05:10:59.966Z,9.50
2023-03-23T05:13:42.142Z,9.55
2023-03-23T05:16:21.910Z,9.59
2023-03-23T05:19:04.022Z,9.64
2023-03-23T05:21:43.755Z,9.68
2023-03-23T05:24:26.173Z,9.73
2023-03-23T05:27:03.736Z,9.78
2023-03-23T05:29:47.010Z,9.79
2023-03-23T05:32:24.807Z,9.85
2023-03-23T05:35:05.168Z,9.82
2023-03-23T05:37:51.150Z,9.81
2023-03-23T05:40:33.015Z,9.91
2023-03-23T05:43:22.428Z,10.01
2023-03-23T05:46:29.462Z,10.06
2023-03-23T05:49:22.698Z,10.05
2023-03-23T05:52:02.152Z,10.19
2023-03-23T05:54:47.333Z,10.27
2023-03-23T05:57:36.901Z,10.30
2023-03-23T06:00:31.329Z,10.38
2023-03-23T06:03:26.782Z,10.48
2023-03-23T06:06:25.955Z,10.56
2023-03-23T06:09:35.084Z,10.67
2023-03-23T06:12:37.573Z,10.75
2023-03-23T06:15:47.985Z,10.87
2023-03-23T06:18:42.065Z,10.99
2023-03-23T06:21:33.389Z,11.06
2023-03-23T06:24:32.599Z,11.23
2023-03-23T06:27:13.159Z,11.36
2023-03-23T06:30:01.870Z,11.44
2023-03-23T06:32:42.176Z,11.52
2023-03-23T06:35:31.746Z,11.59
2023-03-23T06:38:25.403Z,11.72
2023-03-23T06:41:20.756Z,11.84
2023-03-23T06:43:57.304Z,11.92
2023-03-23T06:46:42.288Z,12.06
2023-03-23T06:49:44.896Z,12.17
2023-03-23T06:52:42.337Z,12.28
2023-03-23T06:55:37.494Z,12.35
2023-03-23T06:58:19.740Z,12.43
2023-03-23T07:01:08.941Z,12.52
2023-03-23T07:03:54.393Z,12.64
2023-03-23T07:06:41.237Z,12.72
2023-03-23T07:09:46.507Z,12.81
2023-03-23T07:12:32.440Z,12.79
2023-03-23T07:15:20.583Z,13.05
2023-03-23T07:18:05.754Z,13.14
2023-03-23T07:21:03.340Z,13.20
2023-03-23T07:23:57.772Z,13.27
2023-03-23T07:27:00.542Z,13.38
2023-03-23T07:29:48.380Z,13.49
2023-03-23T07:32:40.102Z,13.59
2023-03-23T07:35:25.011Z,13.62
2023-03-23T07:38:21.386Z,13.68
2023-03-23T07:41:00.336Z,13.80
2023-03-23T07:43:50.876Z,13.87
2023-03-23T07:46:50.038Z,13.96
2023-03-23T07:49:28.670Z,14.11
2023-03-23T07:52:27.895Z,14.23
2023-03-23T07:55:27.413Z,14.31
2023-03-23T07:58:10.704Z,14.45
2023-03-23T08:00:57.693Z,14.60
2023-03-23T08:03:47.343Z,14.66
2023-03-23T08:06:45.609Z,14.79
2023-03-23T08:09:49.369Z,14.92
2023-03-23T08:13:18.084Z,15.10
2023-03-23T08:15:53.604Z,15.22
2023-03-23T08:19:08.530Z,15.14
2023-03-23T08:22:10.533Z,15.30
2023-03-23T08:25:10.964Z,15.36
2023-03-23T08:28:08.252Z,15.52
2023-03-23T08:31:08.812Z,15.63
2023-03-23T08:34:08.828Z,15.73
2023-03-23T08:36:50.333Z,15.77
2023-03-23T08:39:46.653Z,15.91
2023-03-23T08:43:01.220Z,16.06
2023-03-23T08:45:58.051Z,16.09
2023-03-23T08:48:50.710Z,16.09
2023-03-23T08:54:50.922Z,16.38
2023-03-23T08:57:37.308Z,16.34
2023-03-23T09:00:34.077Z,16.39
2023-03-23T09:03:29.995Z,16.43
2023-03-23T09:06:20.012Z,16.60
2023-03-23T09:09:00.372Z,16.77
2023-03-23T09:11:43.372Z,16.91
2023-03-23T09:14:19.910Z,16.88
2023-03-23T09:17:03.525Z,16.98
2023-03-23T09:19:50.399Z,17.18
2023-03-23T09:22:35.101Z,17.28
2023-03-23T09:25:16.932Z,17.34
2023-03-23T09:28:01.269Z,17.50
2023-03-23T09:30:53.202Z,17.66
2023-03-23T09:33:39.984Z,17.75
2023-03-23T09:36:27.213Z,17.70
2023-03-23T09:39:19.538Z,17.92
2023-03-23T09:42:20.495Z,18.02
2023-03-23T09:45:18.232Z,18.14
2023-03-23T09:48:33.296Z,18.24
2023-03-23T09:51:15.065Z,18.25
2023-03-23T09:53:57.882Z,18.42
2023-03-23T09:56:42.928Z,18.37
2023-03-23T09:59:33.466Z,18.54
2023-03-23T10:02:23.326Z,18.77
2023-03-23T10:05:21.142Z,18.90
2023-03-23T10:08:11.966Z,18.93
2023-03-23T10:11:11.096Z,18.88
2023-03-23T10:14:15.760Z,19.04
2023-03-23T10:17:02.960Z,19.12
2023-03-23T10:19:47.146Z,19.17
2023-03-23T10:22:33.802Z,19.23
2023-03-23T10:25:30.127Z,19.40
2023-03-23T10:28:14.905Z,19.43
2023-03-23T10:31:02.015Z,19.33
2023-03-23T10:33:45.600Z,19.45
2023-03-23T10:36:32.358Z,19.47
2023-03-23T10:39:21.476Z,19.50
2023-03-23T10:41:54.991Z,19.60
2023-03-23T10:47:27.795Z,19.71
2023-03-23T10:50:09.894Z,19.88
2023-03-23T10:52:54.819Z,19.98
2023-03-23T10:55:46.260Z,20.11
2023-03-23T10:58:37.268Z,20.16
2023-03-23T11:01:19.847Z,20.17
2023-03-23T11:04:05.828Z,20.10
2023-03-23T11:06:53.297Z,20.32
2023-03-23T11:09:46.484Z,20.35
2023-03-23T11:12:28.216Z,20.35
2023-03-23T11:15:28.946Z,20.29
2023-03-23T11:18:11.877Z,20.27
2023-03-23T11:20:56.425Z,20.15
2023-03-23T11:23:44.109Z,20.19
2023-03-23T11:26:29.179Z,20.33
2023-03-23T11:29:20.529Z,20.44
2023-03-23T11:32:08.488Z,20.52
2023-03-23T11:34:49.798Z,20.69
2023-03-23T11:37:36.387Z,20.80
2023-03-23T11:40:37.728Z,20.89
2023-03-23T11:43:30.936Z,21.02
2023-03-23T11:46:20.204Z,21.12
2023-03-23T11:49:30.645Z,21.24
2023-03-23T11:52:16.343Z,21.35
2023-03-23T11:55:10.178Z,21.44
2023-03-23T11:57:58.524Z,21.53
2023-03-23T12:00:51.930Z,21.58
2023-03-23T12:03:33.193Z,21.69
2023-03-23T12:06:20.827Z,21.75
2023-03-23T12:09:12.667Z,21.83
2023-03-23T12:12:20.145Z,21.87
2023-03-23T12:15:12.128Z,21.99
2023-03-23T12:18:06.358Z,22.06
2023-03-23T12:20:52.480Z,22.19
2023-03-23T12:23:56.075Z,22.15
2023-03-23T12:26:42.123Z,22.19
2023-03-23T12:29:42.903Z,22.06
2023-03-23T12:32:54.282Z,22.25
2023-03-23T12:35:49.435Z,22.26
2023-03-23T12:38:55.585Z,22.37
2023-03-23T12:41:57.246Z,22.40
2023-03-23T12:44:43.524Z,22.39
2023-03-23T12:47:41.106Z,22.61
2023-03-23T12:50:22.394Z,22.72
2023-03-23T12:53:17.361Z,22.71
2023-03-23T12:56:00.450Z,22.77
2023-03-23T12:58:45.549Z,22.83
2023-03-23T13:01:30.711Z,22.98
2023-03-23T13:04:27.186Z,23.07
2023-03-23T13:07:03.022Z,23.18
2023-03-23T13:09:58.110Z,23.07
2023-03-23T13:12:49.142Z,23.30
2023-03-23T13:15:51.636Z,23.36
2023-03-23T13:18:45.032Z,23.39
2023-03-23T13:21:39.656Z,23.34
2023-03-23T13:24:30.725Z,23.21
2023-03-23T13:27:09.748Z,23.35
2023-03-23T13:29:55.211Z,23.31
2023-03-23T13:32:49.924Z,23.18
2023-03-23T13:35:32.001Z,23.19
2023-03-23T13:38:25.574Z,23.29
2023-03-23T13:41:13.017Z,23.19
2023-03-23T13:44:21.497Z,23.22
2023-03-23T13:47:13.662Z,23.41
2023-03-23T13:50:15.315Z,23.47
2023-03-23T13:53:04.422Z,23.43
2023-03-23T13:56:03.460Z,23.46
2023-03-23T13:58:58.307Z,23.39
2023-03-23T14:01:45.705Z,23.44
2023-03-23T14:04:29.632Z,23.48
2023-03-23T14:07:18.476Z,23.51
2023-03-23T14:10:04.384Z,23.54
2023-03-23T14:12:56.756Z,23.52
2023-03-23T14:15:52.357Z,23.43
2023-03-23T14:18:37.761Z,23.40
2023-03-23T14:21:25.149Z,23.32
2023-03-23T14:23:59.619Z,23.33
2023-03-23T14:26:57.244Z,23.34
2023-03-23T14:29:48.046Z,23.29
2023-03-23T14:32:33.414Z,23.36
2023-03-23T14:35:24.102Z,23.37
2023-03-23T14:38:07.064Z,23.43
2023-03-23T14:40:51.440Z,23.40
2023-03-23T14:43:44.298Z,23.57
2023-03-23T14:46:28.793Z,23.72
2023-03-23T14:49:01.049Z,23.70
2023-03-23T14:51:37.478Z,23.68
2023-03-23T14:54:19.904Z,23.65
2023-03-23T14:57:09.405Z,23.74
2023-03-23T14:59:49.972Z,23.57
2023-03-23T15:02:36.005Z,23.56
2023-03-23T15:05:21.948Z,23.42
2023-03-23T15:08:03.295Z,23.34
2023-03-23T15:10:57.927Z,23.20
2023-03-23T15:13:38.171Z,23.01
2023-03-23T15:16:19.808Z,22.96
2023-03-23T15:19:02.421Z,22.88
2023-03-23T15:21:55.945Z,22.72
2023-03-23T15:24:51.736Z,22.66
2023-03-23T15:27:38.102Z,22.62
2023-03-23T15:30:36.348Z,22.53
2023-03-23T15:33:20.363Z,22.56
2023-03-23T15:36:11.366Z,22.51
2023-03-23T15:38:57.462Z,22.51
2023-03-23T15:41:35.364Z,22.41
2023-03-23T15:44:30.826Z,22.47
2023-03-23T15:47:20.869Z,22.40
2023-03-23T15:50:18.456Z,22.32
2023-03-23T15:53:01.607Z,22.24
2023-03-23T15:55:49.080Z,22.13
2023-03-23T15:58:26.659Z,22.08
2023-03-23T16:01:29.471Z,22.11
2023-03-23T16:04:21.778Z,22.12
2023-03-23T16:07:12.682Z,22.01
2023-03-23T16:09:48.097Z,22.09
2023-03-23T16:12:40.987Z,22.11
2023-03-23T16:15:23.565Z,22.10
2023-03-23T16:18:16.020Z,22.06
2023-03-23T16:21:05.680Z,22.05
2023-03-23T16:24:05.159Z,21.98
2023-03-23T16:26:51.352Z,21.85
2023-03-23T16:29:46.927Z,21.74
2023-03-23T16:32:33.409Z,21.65
2023-03-23T16:35:17.445Z,21.50
2023-03-23T16:38:08.436Z,21.44
2023-03-23T16:41:05.662Z,21.26
2023-03-23T16:43:50.684Z,21.13
2023-03-23T16:46:27.349Z,21.02
2023-03-23T16:49:08.793Z,20.89
2023-03-23T16:51:55.836Z,20.76
2023-03-23T16:54:35.467Z,20.67
2023-03-23T16:57:20.865Z,20.53
2023-03-23T16:59:55.714Z,20.53
2023-03-23T17:02:30.405Z,20.44
2023-03-23T17:05:09.958Z,20.40
2023-03-23T17:07:48.470Z,20.32
2023-03-23T17:10:31.214Z,20.24
2023-03-23T17:13:18.818Z,20.04
2023-03-23T17:16:01.408Z,20.08
2023-03-23T17:18:52.873Z,19.97
2023-03-23T17:21:28.506Z,19.94
2023-03-23T17:24:16.247Z,19.84
2023-03-23T17:27:00.021Z,19.78
2023-03-23T17:29:43.908Z,19.64
2023-03-23T17:32:25.262Z,19.64
2023-03-23T17:35:00.284Z,19.59
2023-03-23T17:37:35.632Z,19.50
2023-03-23T17:40:19.107Z,19.47
2023-03-23T17:43:00.445Z,19.42
2023-03-23T17:45:37.478Z,19.37
2023-03-23T17:48:15.424Z,19.28
2023-03-23T17:51:05.864Z,19.27
2023-03-23T17:53:53.148Z,19.17
2023-03-23T17:56:50.374Z,19.12
2023-03-23T17:59:37.880Z,19.01
2023-03-23T18:02:32.947Z,18.93
2023-03-23T18:05:14.063Z,18.88
2023-03-23T18:07:51.464Z,18.77
2023-03-23T18:10:41.860Z,18.80
2023-03-23T18:13:24.637Z,18.77
2023-03-23T18:19:02.894Z,18.70
2023-03-23T18:21:47.986Z,18.71
2023-03-23T18:24:26.884Z,18.71
2023-03-23T18:27:14.488Z,18.65
2023-03-23T18:29:59.129Z,18.58
2023-03-23T18:32:37.734Z,18.50
2023-03-23T18:35:22.357Z,18.50
2023-03-23T18:38:00.343Z,18.44
2023-03-23T18:40:44.844Z,18.39
2023-03-23T18:43:24.617Z,18.39
2023-03-23T18:46:10.350Z,18.36
2023-03-23T18:48:51.361Z,18.35
2023-03-23T18:51:39.428Z,18.28
2023-03-23T18:54:18.711Z,18.14
2023-03-23T18:57:05.257Z,18.24
2023-03-23T18:59:52.557Z,18.04
2023-03-23T19:02:41.684Z,18.12
2023-03-23T19:05:22.235Z,18.01
2023-03-23T19:08:09.952Z,18.02
2023-03-23T19:10:47.314Z,18.00
2023-03-23T19:13:34.507Z,17.90
2023-03-23T19:16:16.528Z,17.89
2023-03-23T19:19:09.791Z,17.87
2023-03-23T19:21:53.431Z,17.82
2023-03-23T19:24:38.628Z,17.65
2023-03-23T19:27:15.482Z,17.71
2023-03-23T19:29:51.608Z,17.66
2023-03-23T19:32:35.076Z,17.59
2023-03-23T19:35:22.486Z,17.55
2023-03-23T19:37:56.183Z,17.48
2023-03-23T19:40:40.526Z,17.44
2023-03-23T19:43:30.445Z,17.46
2023-03-23T19:46:10.956Z,17.41
2023-03-23T19:48:56.363Z,17.31
2023-03-23T19:52:07.233Z,17.31
2023-03-23T19:55:00.202Z,17.28
2023-03-23T19:57:46.943Z,17.28
2023-03-23T20:00:24.449Z,17.22
2023-03-23T20:03:08.943Z,17.16
2023-03-23T20:05:51.770Z,17.11
2023-03-23T20:08:33.592Z,17.13
2023-03-23T20:11:19.832Z,17.03
2023-03-23T20:14:05.783Z,16.95
2023-03-23T20:16:56.175Z,16.91
2023-03-23T20:19:31.610Z,16.91
2023-03-23T20:22:16.138Z,16.81
2023-03-23T20:25:03.505Z,16.77
2023-03-23T20:27:44.331Z,16.75
2023-03-23T20:30:22.900Z,16.74
2023-03-23T20:33:14.634Z,16.69
2023-03-23T20:36:12.520Z,16.60
2023-03-23T20:38:56.744Z,16.51
2023-03-23T20:41:43.867Z,16.53
2023-03-23T20:44:27.553Z,16.52
2023-03-23T20:47:10.591Z,16.41
2023-03-23T20:49:52.640Z,16.44
2023-03-23T20:52:36.627Z,16.16
2023-03-23T20:55:23.126Z,16.36
2023-03-23T20:58:07.489Z,16.29
2023-03-23T21:00:47.940Z,16.28
2023-03-23T21:03:43.673Z,16.28
2023-03-23T21:06:30.247Z,16.22
2023-03-23T21:09:07.022Z,16.23
2023-03-23T21:11:53.879Z,16.22
2023-03-23T21:14:43.197Z,16.21
2023-03-23T21:17:20.949Z,16.18
2023-03-23T21:20:10.249Z,16.12
2023-03-23T21:22:51.847Z,16.00
2023-03-23T21:25:34.533Z,16.08
2023-03-23T21:28:19.475Z,16.03
2023-03-23T21:31:02.206Z,16.03
2023-03-23T21:33:36.395Z,16.01
2023-03-23T21:36:26.364Z,15.96
2023-03-23T21:39:13.391Z,15.94
2023-03-23T21:41:58.023Z,15.92
2023-03-23T21:47:41.691Z,15.82
2023-03-23T21:50:45.954Z,15.73
2023-03-23T21:53:31.052Z,15.75
2023-03-23T21:56:19.308Z,15.70
2023-03-23T21:59:00.930Z,15.68
2023-03-23T22:01:42.351Z,15.55
2023-03-23T22:04:26.942Z,15.63
2023-03-23T22:07:11.602Z,15.58
2023-03-23T22:09:58.095Z,15.49
2023-03-23T22:12:34.684Z,15.47
2023-03-23T22:15:18.982Z,15.45
2023-03-23T22:18:10.016Z,15.39
2023-03-23T22:20:56.619Z,15.23
2023-03-23T22:23:33.423Z,15.32
2023-03-23T22:26:14.816Z,15.25
2023-03-23T22:28:50.253Z,15.24
2023-03-23T22:31:30.669Z,15.17
2023-03-23T22:34:18.272Z,15.10
2023-03-23T22:36:54.359Z,15.11
2023-03-23T22:39:31.611Z,15.13
2023-03-23T22:42:13.576Z,15.10
2023-03-23T22:44:55.307Z,15.05
2023-03-23T22:47:31.768Z,15.02
2023-03-23T22:50:09.377Z,14.98
2023-03-23T22:52:48.660Z,14.97
2023-03-23T22:55:26.117Z,14.95
2023-03-23T22:58:12.143Z,14.94
2023-03-23T23:00:56.723Z,14.94
2023-03-23T23:03:37.042Z,14.86
2023-03-23T23:06:17.427Z,14.82
2023-03-23T23:08:58.512Z,14.77
2023-03-23T23:11:37.241Z,14.68
2023-03-23T23:14:15.138Z,14.65
2023-03-23T23:17:01.335Z,14.61
2023-03-23T23:19:43.580Z,14.59
2023-03-23T23:22:22.596Z,14.61
2023-03-23T23:25:08.459Z,14.45
2023-03-23T23:27:44.836Z,14.65
2023-03-23T23:30:35.626Z,14.61
2023-03-23T23:33:19.090Z,14.55
2023-03-23T23:36:07.278Z,14.41
2023-03-23T23:38:47.303Z,14.20
2023-03-23T23:41:30.148Z,14.33
2023-03-23T23:44:10.876Z,14.29
2023-03-23T23:46:53.218Z,14.24
2023-03-23T23:49:36.240Z,14.21
2023-03-23T23:52:26.729Z,14.10
2023-03-23T23:55:02.769Z,14.14
2023-03-23T23:57:42.412Z,14.05
